sensor_id;sensor_type;location;lat;lon;timestamp;temperature;humidity
41644;DHT22;44236;48.098;11.582;2023-11-19T00:00:00;19.90;47.60
41644;DHT22;44236;48.098;11.582;2023-11-19T00:02:26;19.90;47.70
41644;DHT22;44236;48.098;11.582;2023-11-19T00:04:52;19.80;47.70
41644;DHT22;44236;48.098;11.582;2023-11-19T00:07:18;19.80;47.70
41644;DHT22;44236;48.098;11.582;2023-11-19T00:09:44;19.80;47.90
41644;DHT22;44236;48.098;11.582;2023-11-19T00:12:09;19.80;47.70
41644;DHT22;44236;48.098;11.582;2023-11-19T00:14:35;19.80;47.90
41644;DHT22;44236;48.098;11.582;2023-11-19T00:17:01;19.80;47.90
41644;DHT22;44236;48.098;11.582;2023-11-19T00:19:27;19.80;47.80
41644;DHT22;44236;48.098;11.582;2023-11-19T00:21:53;19.70;47.60
41644;DHT22;44236;48.098;11.582;2023-11-19T00:24:18;19.80;47.90
41644;DHT22;44236;48.098;11.582;2023-11-19T00:26:45;19.70;47.60
41644;DHT22;44236;48.098;11.582;2023-11-19T00:29:11;19.70;48.00
41644;DHT22;44236;48.098;11.582;2023-11-19T00:31:38;19.70;47.80
41644;DHT22;44236;48.098;11.582;2023-11-19T00:34:03;19.70;47.80
41644;DHT22;44236;48.098;11.582;2023-11-19T00:36:31;19.70;47.50
41644;DHT22;44236;48.098;11.582;2023-11-19T00:38:57;19.70;47.70
41644;DHT22;44236;48.098;11.582;2023-11-19T00:41:23;19.70;47.80
41644;DHT22;44236;48.098;11.582;2023-11-19T00:43:49;19.60;47.70
41644;DHT22;44236;48.098;11.582;2023-11-19T00:46:14;19.60;47.90
41644;DHT22;44236;48.098;11.582;2023-11-19T00:48:40;19.60;47.70
41644;DHT22;44236;48.098;11.582;2023-11-19T00:51:06;19.60;47.70
41644;DHT22;44236;48.098;11.582;2023-11-19T00:53:32;19.60;47.90
41644;DHT22;44236;48.098;11.582;2023-11-19T00:55:59;19.60;47.80
41644;DHT22;44236;48.098;11.582;2023-11-19T00:58:25;19.60;47.90
41644;DHT22;44236;48.098;11.582;2023-11-19T01:00:50;19.50;47.40
41644;DHT22;44236;48.098;11.582;2023-11-19T01:03:16;19.50;47.70
41644;DHT22;44236;48.098;11.582;2023-11-19T01:05:42;19.50;47.70
41644;DHT22;44236;48.098;11.582;2023-11-19T01:08:07;19.50;47.60
41644;DHT22;44236;48.098;11.582;2023-11-19T01:10:33;19.50;47.70
41644;DHT22;44236;48.098;11.582;2023-11-19T01:12:59;19.50;47.50
41644;DHT22;44236;48.098;11.582;2023-11-19T01:15:25;19.50;47.50
41644;DHT22;44236;48.098;11.582;2023-11-19T01:17:51;19.50;47.70
41644;DHT22;44236;48.098;11.582;2023-11-19T01:20:17;19.50;47.70
41644;DHT22;44236;48.098;11.582;2023-11-19T01:22:43;19.50;47.80
41644;DHT22;44236;48.098;11.582;2023-11-19T01:25:09;19.50;47.50
41644;DHT22;44236;48.098;11.582;2023-11-19T01:27:37;19.40;47.70
41644;DHT22;44236;48.098;11.582;2023-11-19T01:30:03;19.40;47.20
41644;DHT22;44236;48.098;11.582;2023-11-19T01:32:29;19.40;47.60
41644;DHT22;44236;48.098;11.582;2023-11-19T01:34:54;19.40;47.50
41644;DHT22;44236;48.098;11.582;2023-11-19T01:37:20;19.40;47.60
41644;DHT22;44236;48.098;11.582;2023-11-19T01:39:46;19.40;47.60
41644;DHT22;44236;48.098;11.582;2023-11-19T01:42:11;19.40;47.90
41644;DHT22;44236;48.098;11.582;2023-11-19T01:44:37;19.40;47.60
41644;DHT22;44236;48.098;11.582;2023-11-19T01:47:03;19.40;47.60
41644;DHT22;44236;48.098;11.582;2023-11-19T01:49:30;19.40;47.60
41644;DHT22;44236;48.098;11.582;2023-11-19T01:51:57;19.40;47.60
41644;DHT22;44236;48.098;11.582;2023-11-19T01:54:24;19.30;47.40
41644;DHT22;44236;48.098;11.582;2023-11-19T01:56:50;19.30;47.50
41644;DHT22;44236;48.098;11.582;2023-11-19T01:59:18;19.30;48.00
41644;DHT22;44236;48.098;11.582;2023-11-19T02:01:46;19.30;47.60
41644;DHT22;44236;48.098;11.582;2023-11-19T02:04:11;19.30;47.40
41644;DHT22;44236;48.098;11.582;2023-11-19T02:06:40;19.30;47.50
41644;DHT22;44236;48.098;11.582;2023-11-19T02:09:08;19.30;47.60
41644;DHT22;44236;48.098;11.582;2023-11-19T02:11:35;19.30;47.60
41644;DHT22;44236;48.098;11.582;2023-11-19T02:14:01;19.30;47.40
41644;DHT22;44236;48.098;11.582;2023-11-19T02:16:28;19.30;47.60
41644;DHT22;44236;48.098;11.582;2023-11-19T02:18:54;19.30;47.50
41644;DHT22;44236;48.098;11.582;2023-11-19T02:21:19;19.30;47.60
41644;DHT22;44236;48.098;11.582;2023-11-19T02:23:45;19.20;47.60
41644;DHT22;44236;48.098;11.582;2023-11-19T02:26:44;19.30;47.60
41644;DHT22;44236;48.098;11.582;2023-11-19T02:29:13;19.20;47.60
41644;DHT22;44236;48.098;11.582;2023-11-19T02:31:38;19.20;47.50
41644;DHT22;44236;48.098;11.582;2023-11-19T02:34:04;19.20;47.60
41644;DHT22;44236;48.098;11.582;2023-11-19T02:36:31;19.20;47.70
41644;DHT22;44236;48.098;11.582;2023-11-19T02:38:58;19.20;47.60
41644;DHT22;44236;48.098;11.582;2023-11-19T02:41:23;19.20;47.80
41644;DHT22;44236;48.098;11.582;2023-11-19T02:43:49;19.20;47.60
41644;DHT22;44236;48.098;11.582;2023-11-19T02:46:15;19.20;47.70
41644;DHT22;44236;48.098;11.582;2023-11-19T02:48:43;19.20;47.80
41644;DHT22;44236;48.098;11.582;2023-11-19T02:51:10;19.10;47.60
41644;DHT22;44236;48.098;11.582;2023-11-19T02:53:36;19.10;47.60
41644;DHT22;44236;48.098;11.582;2023-11-19T02:56:05;19.10;47.70
41644;DHT22;44236;48.098;11.582;2023-11-19T02:58:51;19.10;47.70
41644;DHT22;44236;48.098;11.582;2023-11-19T03:01:24;19.10;47.60
41644;DHT22;44236;48.098;11.582;2023-11-19T03:03:55;19.10;47.90
41644;DHT22;44236;48.098;11.582;2023-11-19T03:06:22;19.10;47.80
41644;DHT22;44236;48.098;11.582;2023-11-19T03:08:48;19.10;47.60
41644;DHT22;44236;48.098;11.582;2023-11-19T03:11:14;19.10;47.60
41644;DHT22;44236;48.098;11.582;2023-11-19T03:13:39;19.00;47.60
41644;DHT22;44236;48.098;11.582;2023-11-19T03:16:05;19.00;47.60
41644;DHT22;44236;48.098;11.582;2023-11-19T03:18:31;19.00;47.50
41644;DHT22;44236;48.098;11.582;2023-11-19T03:20:57;19.00;47.60
41644;DHT22;44236;48.098;11.582;2023-11-19T03:23:24;19.00;47.60
41644;DHT22;44236;48.098;11.582;2023-11-19T03:25:49;19.00;47.60
41644;DHT22;44236;48.098;11.582;2023-11-19T03:28:15;19.00;47.80
41644;DHT22;44236;48.098;11.582;2023-11-19T03:30:41;18.90;47.60
41644;DHT22;44236;48.098;11.582;2023-11-19T03:33:06;18.90;47.70
41644;DHT22;44236;48.098;11.582;2023-11-19T03:35:32;18.90;47.70
41644;DHT22;44236;48.098;11.582;2023-11-19T03:37:58;18.90;47.80
41644;DHT22;44236;48.098;11.582;2023-11-19T03:40:24;18.90;47.70
41644;DHT22;44236;48.098;11.582;2023-11-19T03:42:50;18.90;47.80
41644;DHT22;44236;48.098;11.582;2023-11-19T03:45:16;18.90;47.80
41644;DHT22;44236;48.098;11.582;2023-11-19T03:47:42;18.90;47.80
41644;DHT22;44236;48.098;11.582;2023-11-19T03:50:08;18.80;47.90
41644;DHT22;44236;48.098;11.582;2023-11-19T03:52:34;18.90;48.00
41644;DHT22;44236;48.098;11.582;2023-11-19T03:55:00;18.90;48.00
41644;DHT22;44236;48.098;11.582;2023-11-19T03:57:27;18.80;48.00
41644;DHT22;44236;48.098;11.582;2023-11-19T03:59:53;18.80;48.00
41644;DHT22;44236;48.098;11.582;2023-11-19T04:02:18;18.80;48.10
41644;DHT22;44236;48.098;11.582;2023-11-19T04:04:44;18.80;48.00
41644;DHT22;44236;48.098;11.582;2023-11-19T04:07:10;18.80;48.20
41644;DHT22;44236;48.098;11.582;2023-11-19T04:09:35;18.70;48.00
41644;DHT22;44236;48.098;11.582;2023-11-19T04:12:03;18.80;48.20
41644;DHT22;44236;48.098;11.582;2023-11-19T04:14:29;18.80;48.20
41644;DHT22;44236;48.098;11.582;2023-11-19T04:16:55;18.70;48.10
41644;DHT22;44236;48.098;11.582;2023-11-19T04:19:20;18.70;48.00
41644;DHT22;44236;48.098;11.582;2023-11-19T04:21:46;18.80;48.20
41644;DHT22;44236;48.098;11.582;2023-11-19T04:24:12;18.70;48.20
41644;DHT22;44236;48.098;11.582;2023-11-19T04:26:42;18.70;48.10
41644;DHT22;44236;48.098;11.582;2023-11-19T04:29:15;18.70;48.30
41644;DHT22;44236;48.098;11.582;2023-11-19T04:31:42;18.70;48.20
41644;DHT22;44236;48.098;11.582;2023-11-19T04:34:08;18.70;48.40
41644;DHT22;44236;48.098;11.582;2023-11-19T04:36:33;18.70;48.30
41644;DHT22;44236;48.098;11.582;2023-11-19T04:39:00;18.60;48.30
41644;DHT22;44236;48.098;11.582;2023-11-19T04:41:26;18.60;48.30
41644;DHT22;44236;48.098;11.582;2023-11-19T04:43:53;18.60;48.40
41644;DHT22;44236;48.098;11.582;2023-11-19T04:46:19;18.60;48.40
41644;DHT22;44236;48.098;11.582;2023-11-19T04:48:45;18.60;48.30
41644;DHT22;44236;48.098;11.582;2023-11-19T04:51:10;18.60;48.30
41644;DHT22;44236;48.098;11.582;2023-11-19T04:53:36;18.60;48.50
41644;DHT22;44236;48.098;11.582;2023-11-19T04:56:10;18.60;48.50
41644;DHT22;44236;48.098;11.582;2023-11-19T04:58:36;18.60;48.60
41644;DHT22;44236;48.098;11.582;2023-11-19T05:01:03;18.60;48.50
41644;DHT22;44236;48.098;11.582;2023-11-19T05:03:29;18.60;48.50
41644;DHT22;44236;48.098;11.582;2023-11-19T05:05:55;18.60;48.70
41644;DHT22;44236;48.098;11.582;2023-11-19T05:08:21;18.60;48.60
41644;DHT22;44236;48.098;11.582;2023-11-19T05:10:46;18.60;48.60
41644;DHT22;44236;48.098;11.582;2023-11-19T05:13:12;18.60;48.70
41644;DHT22;44236;48.098;11.582;2023-11-19T05:15:38;18.60;48.90
41644;DHT22;44236;48.098;11.582;2023-11-19T05:18:03;18.60;48.80
41644;DHT22;44236;48.098;11.582;2023-11-19T05:20:30;18.70;48.90
41644;DHT22;44236;48.098;11.582;2023-11-19T05:22:56;18.70;49.10
41644;DHT22;44236;48.098;11.582;2023-11-19T05:25:22;18.70;49.00
41644;DHT22;44236;48.098;11.582;2023-11-19T05:27:47;18.70;48.80
41644;DHT22;44236;48.098;11.582;2023-11-19T05:30:13;18.80;48.80
41644;DHT22;44236;48.098;11.582;2023-11-19T05:32:39;18.80;48.70
41644;DHT22;44236;48.098;11.582;2023-11-19T05:35:05;18.80;48.70
41644;DHT22;44236;48.098;11.582;2023-11-19T05:37:30;18.80;48.80
41644;DHT22;44236;48.098;11.582;2023-11-19T05:39:56;18.90;48.70
41644;DHT22;44236;48.098;11.582;2023-11-19T05:42:21;18.90;48.80
41644;DHT22;44236;48.098;11.582;2023-11-19T05:44:47;18.90;48.70
41644;DHT22;44236;48.098;11.582;2023-11-19T05:47:13;18.90;48.80
41644;DHT22;44236;48.098;11.582;2023-11-19T05:49:38;18.90;48.70
41644;DHT22;44236;48.098;11.582;2023-11-19T05:52:04;19.00;48.80
41644;DHT22;44236;48.098;11.582;2023-11-19T05:54:32;18.90;48.50
41644;DHT22;44236;48.098;11.582;2023-11-19T05:57:05;19.00;48.70
41644;DHT22;44236;48.098;11.582;2023-11-19T05:59:34;19.00;48.40
41644;DHT22;44236;48.098;11.582;2023-11-19T06:02:01;19.00;48.30
41644;DHT22;44236;48.098;11.582;2023-11-19T06:04:27;19.00;48.20
41644;DHT22;44236;48.098;11.582;2023-11-19T06:06:53;19.10;48.10
41644;DHT22;44236;48.098;11.582;2023-11-19T06:09:20;19.10;48.00
41644;DHT22;44236;48.098;11.582;2023-11-19T06:11:46;19.10;48.20
41644;DHT22;44236;48.098;11.582;2023-11-19T06:14:12;19.10;48.40
41644;DHT22;44236;48.098;11.582;2023-11-19T06:16:38;19.10;48.50
41644;DHT22;44236;48.098;11.582;2023-11-19T06:19:05;19.10;48.10
41644;DHT22;44236;48.098;11.582;2023-11-19T06:21:31;19.10;48.30
41644;DHT22;44236;48.098;11.582;2023-11-19T06:23:56;19.10;48.40
41644;DHT22;44236;48.098;11.582;2023-11-19T06:26:22;19.20;48.80
41644;DHT22;44236;48.098;11.582;2023-11-19T06:28:48;19.20;48.60
41644;DHT22;44236;48.098;11.582;2023-11-19T06:31:14;19.20;48.10
41644;DHT22;44236;48.098;11.582;2023-11-19T06:33:41;19.30;48.60
41644;DHT22;44236;48.098;11.582;2023-11-19T06:36:08;19.30;47.90
41644;DHT22;44236;48.098;11.582;2023-11-19T06:38:34;19.30;47.20
41644;DHT22;44236;48.098;11.582;2023-11-19T06:41:00;19.30;48.50
41644;DHT22;44236;48.098;11.582;2023-11-19T06:43:25;19.30;48.60
41644;DHT22;44236;48.098;11.582;2023-11-19T06:45:51;19.40;48.80
41644;DHT22;44236;48.098;11.582;2023-11-19T06:48:16;19.40;48.80
41644;DHT22;44236;48.098;11.582;2023-11-19T06:50:42;19.40;49.60
41644;DHT22;44236;48.098;11.582;2023-11-19T06:53:08;19.40;48.90
41644;DHT22;44236;48.098;11.582;2023-11-19T06:55:35;19.40;48.90
41644;DHT22;44236;48.098;11.582;2023-11-19T06:58:01;19.40;48.50
41644;DHT22;44236;48.098;11.582;2023-11-19T07:00:28;19.40;48.50
41644;DHT22;44236;48.098;11.582;2023-11-19T07:02:54;19.40;48.90
41644;DHT22;44236;48.098;11.582;2023-11-19T07:05:20;19.40;48.70
41644;DHT22;44236;48.098;11.582;2023-11-19T07:07:46;19.50;48.50
41644;DHT22;44236;48.098;11.582;2023-11-19T07:10:12;19.50;48.40
41644;DHT22;44236;48.098;11.582;2023-11-19T07:12:38;19.50;48.60
41644;DHT22;44236;48.098;11.582;2023-11-19T07:15:04;19.50;47.80
41644;DHT22;44236;48.098;11.582;2023-11-19T07:17:31;19.60;48.30
41644;DHT22;44236;48.098;11.582;2023-11-19T07:19:56;19.60;48.20
41644;DHT22;44236;48.098;11.582;2023-11-19T07:22:25;19.60;48.20
41644;DHT22;44236;48.098;11.582;2023-11-19T07:24:50;19.60;47.30
41644;DHT22;44236;48.098;11.582;2023-11-19T07:27:17;19.60;48.00
41644;DHT22;44236;48.098;11.582;2023-11-19T07:29:43;19.70;47.90
41644;DHT22;44236;48.098;11.582;2023-11-19T07:32:10;19.70;48.20
41644;DHT22;44236;48.098;11.582;2023-11-19T07:34:36;19.70;47.90
41644;DHT22;44236;48.098;11.582;2023-11-19T07:37:01;19.70;47.60
41644;DHT22;44236;48.098;11.582;2023-11-19T07:39:28;19.70;48.00
41644;DHT22;44236;48.098;11.582;2023-11-19T07:41:54;19.70;48.10
41644;DHT22;44236;48.098;11.582;2023-11-19T07:44:20;19.70;48.40
41644;DHT22;44236;48.098;11.582;2023-11-19T07:46:47;19.70;48.30
41644;DHT22;44236;48.098;11.582;2023-11-19T07:49:13;19.70;48.10
41644;DHT22;44236;48.098;11.582;2023-11-19T07:51:39;19.80;47.90
41644;DHT22;44236;48.098;11.582;2023-11-19T07:54:05;19.80;48.30
41644;DHT22;44236;48.098;11.582;2023-11-19T07:56:34;19.80;48.50
41644;DHT22;44236;48.098;11.582;2023-11-19T07:59:01;19.80;47.70
41644;DHT22;44236;48.098;11.582;2023-11-19T08:01:26;19.80;48.30
41644;DHT22;44236;48.098;11.582;2023-11-19T08:03:52;19.80;50.70
41644;DHT22;44236;48.098;11.582;2023-11-19T08:06:18;19.70;50.80
41644;DHT22;44236;48.098;11.582;2023-11-19T08:08:43;19.70;51.60
41644;DHT22;44236;48.098;11.582;2023-11-19T08:11:10;19.60;51.60
41644;DHT22;44236;48.098;11.582;2023-11-19T08:13:35;19.60;50.00
41644;DHT22;44236;48.098;11.582;2023-11-19T08:16:01;19.60;49.30
41644;DHT22;44236;48.098;11.582;2023-11-19T08:18:27;19.70;49.20
41644;DHT22;44236;48.098;11.582;2023-11-19T08:20:53;19.70;48.40
41644;DHT22;44236;48.098;11.582;2023-11-19T08:23:20;19.70;48.40
41644;DHT22;44236;48.098;11.582;2023-11-19T08:25:46;19.80;48.40
41644;DHT22;44236;48.098;11.582;2023-11-19T08:28:11;19.80;49.20
41644;DHT22;44236;48.098;11.582;2023-11-19T08:30:38;19.90;49.00
41644;DHT22;44236;48.098;11.582;2023-11-19T08:33:03;19.90;50.10
41644;DHT22;44236;48.098;11.582;2023-11-19T08:35:31;19.90;48.50
41644;DHT22;44236;48.098;11.582;2023-11-19T08:37:57;19.90;48.40
41644;DHT22;44236;48.098;11.582;2023-11-19T08:40:24;19.90;48.50
41644;DHT22;44236;48.098;11.582;2023-11-19T08:42:51;20.00;48.40
41644;DHT22;44236;48.098;11.582;2023-11-19T08:45:17;19.90;48.50
41644;DHT22;44236;48.098;11.582;2023-11-19T08:47:42;20.00;48.60
41644;DHT22;44236;48.098;11.582;2023-11-19T08:50:11;20.00;49.90
41644;DHT22;44236;48.098;11.582;2023-11-19T08:52:36;20.00;49.50
41644;DHT22;44236;48.098;11.582;2023-11-19T08:55:02;20.00;49.50
41644;DHT22;44236;48.098;11.582;2023-11-19T08:57:28;20.00;49.30
41644;DHT22;44236;48.098;11.582;2023-11-19T08:59:54;20.00;48.40
41644;DHT22;44236;48.098;11.582;2023-11-19T09:02:19;20.00;48.70
41644;DHT22;44236;48.098;11.582;2023-11-19T09:04:45;20.10;48.60
41644;DHT22;44236;48.098;11.582;2023-11-19T09:07:11;20.00;49.90
41644;DHT22;44236;48.098;11.582;2023-11-19T09:09:36;20.00;49.10
41644;DHT22;44236;48.098;11.582;2023-11-19T09:12:03;20.10;49.50
41644;DHT22;44236;48.098;11.582;2023-11-19T09:14:32;20.10;49.20
41644;DHT22;44236;48.098;11.582;2023-11-19T09:16:57;20.10;50.80
41644;DHT22;44236;48.098;11.582;2023-11-19T09:19:24;20.10;49.50
41644;DHT22;44236;48.098;11.582;2023-11-19T09:21:49;20.10;49.30
41644;DHT22;44236;48.098;11.582;2023-11-19T09:24:16;20.10;49.20
41644;DHT22;44236;48.098;11.582;2023-11-19T09:26:41;20.10;49.70
41644;DHT22;44236;48.098;11.582;2023-11-19T09:29:07;20.10;49.80
41644;DHT22;44236;48.098;11.582;2023-11-19T09:31:33;20.10;49.80
41644;DHT22;44236;48.098;11.582;2023-11-19T09:34:00;20.10;49.80
41644;DHT22;44236;48.098;11.582;2023-11-19T09:36:25;20.10;49.60
41644;DHT22;44236;48.098;11.582;2023-11-19T09:38:51;20.10;50.00
41644;DHT22;44236;48.098;11.582;2023-11-19T09:41:17;20.10;50.00
41644;DHT22;44236;48.098;11.582;2023-11-19T09:43:45;20.00;50.20
41644;DHT22;44236;48.098;11.582;2023-11-19T09:46:12;20.00;50.10
41644;DHT22;44236;48.098;11.582;2023-11-19T09:48:39;20.10;50.10
41644;DHT22;44236;48.098;11.582;2023-11-19T09:51:11;21.00;50.80
41644;DHT22;44236;48.098;11.582;2023-11-19T09:53:37;20.00;50.20
41644;DHT22;44236;48.098;11.582;2023-11-19T09:56:04;20.00;50.10
41644;DHT22;44236;48.098;11.582;2023-11-19T09:58:31;20.10;49.80
41644;DHT22;44236;48.098;11.582;2023-11-19T10:00:57;20.10;50.10
41644;DHT22;44236;48.098;11.582;2023-11-19T10:03:26;20.10;50.40
41644;DHT22;44236;48.098;11.582;2023-11-19T10:05:55;20.20;51.40
41644;DHT22;44236;48.098;11.582;2023-11-19T10:08:22;20.20;51.40
41644;DHT22;44236;48.098;11.582;2023-11-19T10:10:48;20.20;52.30
41644;DHT22;44236;48.098;11.582;2023-11-19T10:13:14;20.20;52.60
41644;DHT22;44236;48.098;11.582;2023-11-19T10:15:40;20.20;52.80
41644;DHT22;44236;48.098;11.582;2023-11-19T10:18:06;20.20;54.10
41644;DHT22;44236;48.098;11.582;2023-11-19T10:20:41;20.10;54.20
41644;DHT22;44236;48.098;11.582;2023-11-19T10:23:07;20.10;53.70
41644;DHT22;44236;48.098;11.582;2023-11-19T10:25:33;20.10;54.20
41644;DHT22;44236;48.098;11.582;2023-11-19T10:27:59;20.20;53.60
41644;DHT22;44236;48.098;11.582;2023-11-19T10:30:30;20.10;51.10
41644;DHT22;44236;48.098;11.582;2023-11-19T10:35:34;20.30;50.70
41644;DHT22;44236;48.098;11.582;2023-11-19T10:38:01;20.30;51.40
41644;DHT22;44236;48.098;11.582;2023-11-19T10:40:39;20.30;50.60
41644;DHT22;44236;48.098;11.582;2023-11-19T10:43:08;20.30;50.30
41644;DHT22;44236;48.098;11.582;2023-11-19T10:45:38;20.30;50.30
41644;DHT22;44236;48.098;11.582;2023-11-19T10:48:05;20.40;50.20
41644;DHT22;44236;48.098;11.582;2023-11-19T10:50:34;20.40;50.30
41644;DHT22;44236;48.098;11.582;2023-11-19T10:53:02;20.40;50.20
41644;DHT22;44236;48.098;11.582;2023-11-19T10:55:31;20.50;50.60
41644;DHT22;44236;48.098;11.582;2023-11-19T10:58:01;20.50;50.30
41644;DHT22;44236;48.098;11.582;2023-11-19T11:00:54;20.50;50.40
41644;DHT22;44236;48.098;11.582;2023-11-19T11:03:23;20.50;50.50
41644;DHT22;44236;48.098;11.582;2023-11-19T11:05:51;20.50;50.40
41644;DHT22;44236;48.098;11.582;2023-11-19T11:08:18;20.50;50.30
41644;DHT22;44236;48.098;11.582;2023-11-19T11:10:55;20.60;51.10
41644;DHT22;44236;48.098;11.582;2023-11-19T11:13:23;20.60;50.70
41644;DHT22;44236;48.098;11.582;2023-11-19T11:15:56;20.50;51.90
41644;DHT22;44236;48.098;11.582;2023-11-19T11:18:25;20.50;51.20
41644;DHT22;44236;48.098;11.582;2023-11-19T11:21:00;20.60;51.20
41644;DHT22;44236;48.098;11.582;2023-11-19T11:26:57;20.60;51.60
41644;DHT22;44236;48.098;11.582;2023-11-19T11:35:01;20.70;51.40
41644;DHT22;44236;48.098;11.582;2023-11-19T11:37:34;20.70;52.10
41644;DHT22;44236;48.098;11.582;2023-11-19T11:40:02;20.70;52.70
41644;DHT22;44236;48.098;11.582;2023-11-19T11:42:38;20.70;52.70
41644;DHT22;44236;48.098;11.582;2023-11-19T11:45:08;20.70;52.90
41644;DHT22;44236;48.098;11.582;2023-11-19T11:50:10;20.70;52.80
41644;DHT22;44236;48.098;11.582;2023-11-19T11:58:25;20.70;52.30
41644;DHT22;44236;48.098;11.582;2023-11-19T12:00:51;20.70;53.70
41644;DHT22;44236;48.098;11.582;2023-11-19T12:03:20;20.70;52.80
41644;DHT22;44236;48.098;11.582;2023-11-19T12:05:49;20.80;52.60
41644;DHT22;44236;48.098;11.582;2023-11-19T12:08:19;20.80;52.80
41644;DHT22;44236;48.098;11.582;2023-11-19T12:10:53;20.80;52.70
41644;DHT22;44236;48.098;11.582;2023-11-19T12:13:20;20.80;53.00
41644;DHT22;44236;48.098;11.582;2023-11-19T12:18:28;20.80;54.20
41644;DHT22;44236;48.098;11.582;2023-11-19T12:20:54;20.80;55.40
41644;DHT22;44236;48.098;11.582;2023-11-19T12:23:20;20.80;53.40
41644;DHT22;44236;48.098;11.582;2023-11-19T12:25:47;20.80;54.20
41644;DHT22;44236;48.098;11.582;2023-11-19T12:28:14;20.80;52.70
41644;DHT22;44236;48.098;11.582;2023-11-19T12:30:40;20.90;53.40
41644;DHT22;44236;48.098;11.582;2023-11-19T12:33:09;20.90;53.50
41644;DHT22;44236;48.098;11.582;2023-11-19T12:35:39;20.90;56.20
41644;DHT22;44236;48.098;11.582;2023-11-19T12:38:05;20.80;55.20
41644;DHT22;44236;48.098;11.582;2023-11-19T12:40:31;20.80;55.10
41644;DHT22;44236;48.098;11.582;2023-11-19T12:42:57;20.70;54.10
41644;DHT22;44236;48.098;11.582;2023-11-19T12:45:23;20.50;53.80
41644;DHT22;44236;48.098;11.582;2023-11-19T12:48:07;20.40;53.40
41644;DHT22;44236;48.098;11.582;2023-11-19T12:50:57;20.30;54.00
41644;DHT22;44236;48.098;11.582;2023-11-19T12:53:24;20.20;53.40
41644;DHT22;44236;48.098;11.582;2023-11-19T12:55:51;20.00;52.90
41644;DHT22;44236;48.098;11.582;2023-11-19T13:01:02;19.90;53.10
41644;DHT22;44236;48.098;11.582;2023-11-19T13:03:35;20.00;53.50
41644;DHT22;44236;48.098;11.582;2023-11-19T13:06:06;20.00;53.40
41644;DHT22;44236;48.098;11.582;2023-11-19T13:08:49;20.00;53.30
41644;DHT22;44236;48.098;11.582;2023-11-19T13:11:31;20.10;53.20
41644;DHT22;44236;48.098;11.582;2023-11-19T13:14:05;20.20;53.10
41644;DHT22;44236;48.098;11.582;2023-11-19T13:16:35;20.30;53.00
41644;DHT22;44236;48.098;11.582;2023-11-19T13:19:01;20.30;53.00
41644;DHT22;44236;48.098;11.582;2023-11-19T13:21:28;20.30;52.90
41644;DHT22;44236;48.098;11.582;2023-11-19T13:23:55;20.40;52.80
41644;DHT22;44236;48.098;11.582;2023-11-19T13:26:20;20.40;52.80
41644;DHT22;44236;48.098;11.582;2023-11-19T13:28:46;20.40;52.80
41644;DHT22;44236;48.098;11.582;2023-11-19T13:31:12;20.40;52.60
41644;DHT22;44236;48.098;11.582;2023-11-19T13:33:37;20.50;52.70
41644;DHT22;44236;48.098;11.582;2023-11-19T13:36:04;20.50;52.60
41644;DHT22;44236;48.098;11.582;2023-11-19T13:38:36;20.50;52.40
41644;DHT22;44236;48.098;11.582;2023-11-19T13:41:02;20.60;52.50
41644;DHT22;44236;48.098;11.582;2023-11-19T13:43:29;20.60;52.90
41644;DHT22;44236;48.098;11.582;2023-11-19T13:45:56;20.60;52.90
41644;DHT22;44236;48.098;11.582;2023-11-19T13:48:22;20.60;52.90
41644;DHT22;44236;48.098;11.582;2023-11-19T13:50:47;20.60;52.90
41644;DHT22;44236;48.098;11.582;2023-11-19T13:53:13;20.60;52.90
41644;DHT22;44236;48.098;11.582;2023-11-19T13:55:39;20.60;52.90
41644;DHT22;44236;48.098;11.582;2023-11-19T13:58:05;20.60;52.90
41644;DHT22;44236;48.098;11.582;2023-11-19T14:00:31;20.60;53.00
41644;DHT22;44236;48.098;11.582;2023-11-19T14:02:56;20.60;53.10
41644;DHT22;44236;48.098;11.582;2023-11-19T14:05:22;20.60;53.20
41644;DHT22;44236;48.098;11.582;2023-11-19T14:07:48;20.60;53.20
41644;DHT22;44236;48.098;11.582;2023-11-19T14:10:14;20.60;52.90
41644;DHT22;44236;48.098;11.582;2023-11-19T14:12:41;20.70;52.90
41644;DHT22;44236;48.098;11.582;2023-11-19T14:15:08;20.60;53.00
41644;DHT22;44236;48.098;11.582;2023-11-19T14:17:42;20.70;53.10
41644;DHT22;44236;48.098;11.582;2023-11-19T14:20:08;20.70;53.40
41644;DHT22;44236;48.098;11.582;2023-11-19T14:22:45;20.70;53.00
41644;DHT22;44236;48.098;11.582;2023-11-19T14:25:14;20.70;53.20
41644;DHT22;44236;48.098;11.582;2023-11-19T14:27:41;20.70;53.20
41644;DHT22;44236;48.098;11.582;2023-11-19T14:30:09;20.70;53.10
41644;DHT22;44236;48.098;11.582;2023-11-19T14:32:36;20.70;53.20
41644;DHT22;44236;48.098;11.582;2023-11-19T14:35:02;20.70;53.80
41644;DHT22;44236;48.098;11.582;2023-11-19T14:37:29;20.80;52.80
41644;DHT22;44236;48.098;11.582;2023-11-19T14:39:56;20.70;52.70
41644;DHT22;44236;48.098;11.582;2023-11-19T14:42:23;20.70;53.30
41644;DHT22;44236;48.098;11.582;2023-11-19T14:44:53;20.70;53.30
41644;DHT22;44236;48.098;11.582;2023-11-19T14:47:19;20.70;53.10
41644;DHT22;44236;48.098;11.582;2023-11-19T14:49:45;20.70;53.30
41644;DHT22;44236;48.098;11.582;2023-11-19T14:52:10;20.70;53.20
41644;DHT22;44236;48.098;11.582;2023-11-19T14:54:37;20.70;53.40
41644;DHT22;44236;48.098;11.582;2023-11-19T14:57:04;20.70;53.40
41644;DHT22;44236;48.098;11.582;2023-11-19T14:59:29;20.80;53.50
41644;DHT22;44236;48.098;11.582;2023-11-19T15:01:55;20.70;53.20
41644;DHT22;44236;48.098;11.582;2023-11-19T15:04:20;20.70;53.80
41644;DHT22;44236;48.098;11.582;2023-11-19T15:06:46;20.80;53.60
41644;DHT22;44236;48.098;11.582;2023-11-19T15:09:11;20.70;53.60
41644;DHT22;44236;48.098;11.582;2023-11-19T15:11:43;20.80;53.80
41644;DHT22;44236;48.098;11.582;2023-11-19T15:14:09;20.80;54.20
41644;DHT22;44236;48.098;11.582;2023-11-19T15:16:34;20.80;53.90
41644;DHT22;44236;48.098;11.582;2023-11-19T15:19:00;20.80;54.20
41644;DHT22;44236;48.098;11.582;2023-11-19T15:21:29;20.80;54.10
41644;DHT22;44236;48.098;11.582;2023-11-19T15:23:55;20.80;54.60
41644;DHT22;44236;48.098;11.582;2023-11-19T15:26:21;20.80;54.60
41644;DHT22;44236;48.098;11.582;2023-11-19T15:28:47;20.80;54.80
41644;DHT22;44236;48.098;11.582;2023-11-19T15:31:13;20.80;54.90
41644;DHT22;44236;48.098;11.582;2023-11-19T15:33:40;20.80;54.80
41644;DHT22;44236;48.098;11.582;2023-11-19T15:36:06;20.80;54.40
41644;DHT22;44236;48.098;11.582;2023-11-19T15:38:36;20.80;54.70